createdAt,value
2022-12-04T00:00:46.091Z,13.20
2022-12-04T00:02:50.995Z,12.70
2022-12-04T00:04:55.870Z,12.88
2022-12-04T00:07:00.712Z,12.45
2022-12-04T00:09:05.973Z,12.70
2022-12-04T00:11:12.978Z,11.57
2022-12-04T00:13:19.382Z,12.10
2022-12-04T00:15:25.956Z,12.05
2022-12-04T00:17:34.003Z,11.70
2022-12-04T00:19:38.980Z,12.15
2022-12-04T00:21:48.342Z,11.98
2022-12-04T00:23:54.982Z,14.40
2022-12-04T00:26:03.430Z,11.57
2022-12-04T00:28:08.392Z,11.52
2022-12-04T00:30:14.543Z,11.27
2022-12-04T00:32:19.375Z,11.52
2022-12-04T00:34:28.386Z,12.23
2022-12-04T00:36:33.370Z,11.85
2022-12-04T00:38:38.868Z,11.68
2022-12-04T00:40:51.982Z,12.07
2022-12-04T00:42:56.758Z,11.90
2022-12-04T00:45:01.552Z,11.65
2022-12-04T00:47:06.518Z,11.65
2022-12-04T00:49:11.407Z,12.20
2022-12-04T00:51:20.382Z,11.30
2022-12-04T00:53:25.230Z,10.50
2022-12-04T00:55:30.087Z,11.80
2022-12-04T00:57:34.893Z,11.43
2022-12-04T00:59:40.544Z,11.85
2022-12-04T01:01:48.348Z,12.38
2022-12-04T01:03:53.527Z,11.52
2022-12-04T01:05:58.486Z,11.27
2022-12-04T01:08:05.937Z,12.13
2022-12-04T01:10:15.470Z,12.30
2022-12-04T01:12:21.093Z,11.88
2022-12-04T01:14:26.112Z,12.05
2022-12-04T01:16:33.338Z,11.20
2022-12-04T01:18:38.343Z,11.98
2022-12-04T01:20:43.398Z,12.05
2022-12-04T01:24:58.334Z,11.60
2022-12-04T01:27:03.093Z,11.95
2022-12-04T01:29:08.305Z,11.18
2022-12-04T01:31:15.921Z,11.40
2022-12-04T01:33:20.723Z,11.13
2022-12-04T01:35:25.613Z,10.63
2022-12-04T01:37:33.692Z,12.38
2022-12-04T01:39:39.027Z,12.15
2022-12-04T01:44:13.709Z,10.35
2022-12-04T01:46:18.526Z,10.68
2022-12-04T01:48:31.027Z,11.77
2022-12-04T01:50:36.436Z,12.45
2022-12-04T01:52:41.927Z,11.82
2022-12-04T01:54:53.465Z,12.60
2022-12-04T01:57:05.973Z,11.73
2022-12-04T01:59:12.103Z,11.88
2022-12-04T02:01:17.062Z,11.65
2022-12-04T02:03:22.169Z,11.63
2022-12-04T02:05:27.289Z,12.27
2022-12-04T02:07:32.596Z,11.82
2022-12-04T02:09:39.675Z,11.00
2022-12-04T02:11:52.231Z,11.50
2022-12-04T02:14:10.553Z,12.07
2022-12-04T02:16:22.453Z,11.27
2022-12-04T02:18:38.630Z,11.35
2022-12-04T02:20:49.049Z,11.52
2022-12-04T02:23:31.838Z,11.90
2022-12-04T02:25:47.817Z,10.48
2022-12-04T02:28:06.137Z,10.63
2022-12-04T02:30:14.437Z,11.65
2022-12-04T02:32:29.482Z,11.40
2022-12-04T02:34:44.583Z,11.18
2022-12-04T02:36:55.414Z,10.48
2022-12-04T02:39:04.916Z,11.15
2022-12-04T02:41:16.477Z,11.60
2022-12-04T02:43:29.961Z,11.70
2022-12-04T02:45:41.800Z,11.13
2022-12-04T02:47:49.463Z,10.95
2022-12-04T02:49:58.467Z,10.82
2022-12-04T02:52:05.435Z,11.85
2022-12-04T02:54:15.760Z,11.32
2022-12-04T02:56:25.755Z,11.07
2022-12-04T02:58:36.587Z,10.82
2022-12-04T03:00:45.512Z,10.40
2022-12-04T03:02:56.212Z,11.55
2022-12-04T03:05:05.981Z,10.88
2022-12-04T03:07:16.779Z,10.48
2022-12-04T03:09:26.369Z,9.68
2022-12-04T03:11:36.548Z,9.70
2022-12-04T03:13:50.494Z,10.73
2022-12-04T03:16:01.013Z,11.93
2022-12-04T03:18:09.745Z,10.63
2022-12-04T03:20:17.631Z,10.68
2022-12-04T03:22:25.486Z,10.75
2022-12-04T03:24:33.785Z,10.77
2022-12-04T03:26:43.046Z,10.68
2022-12-04T03:28:58.755Z,12.30
2022-12-04T03:33:16.138Z,10.43
2022-12-04T03:35:26.436Z,10.80
2022-12-04T03:37:38.995Z,10.85
2022-12-04T03:39:54.725Z,10.75
2022-12-04T03:42:05.075Z,10.43
2022-12-04T03:44:17.133Z,10.40
2022-12-04T03:46:28.359Z,10.27
2022-12-04T03:48:39.986Z,10.93
2022-12-04T03:50:51.182Z,10.23
2022-12-04T03:53:03.406Z,10.23
2022-12-04T03:55:13.778Z,9.70
2022-12-04T03:57:23.170Z,9.90
2022-12-04T03:59:33.924Z,10.30
2022-12-04T04:01:44.578Z,9.30
2022-12-04T04:03:52.178Z,9.85
2022-12-04T04:06:01.709Z,9.27
2022-12-04T04:08:22.928Z,9.68
2022-12-04T04:10:30.125Z,9.73
2022-12-04T04:12:40.253Z,10.02
2022-12-04T04:15:06.202Z,9.75
2022-12-04T04:17:27.626Z,9.20
2022-12-04T04:19:49.713Z,10.05
2022-12-04T04:22:11.061Z,9.75
2022-12-04T04:24:28.216Z,9.70
2022-12-04T04:26:51.354Z,9.77
2022-12-04T04:28:56.259Z,10.15
2022-12-04T04:31:10.215Z,11.50
2022-12-04T04:33:19.671Z,10.68
2022-12-04T04:35:28.163Z,9.48
2022-12-04T04:37:38.438Z,10.05
2022-12-04T04:39:53.567Z,10.20
2022-12-04T04:42:03.380Z,10.25
2022-12-04T04:44:17.427Z,10.00
2022-12-04T04:46:29.853Z,10.40
2022-12-04T04:48:37.886Z,10.05
2022-12-04T04:50:44.442Z,10.18
2022-12-04T04:52:52.698Z,9.57
2022-12-04T04:55:01.237Z,9.25
2022-12-04T04:57:06.164Z,9.18
2022-12-04T04:59:11.145Z,9.98
2022-12-04T05:01:19.935Z,10.10
2022-12-04T05:03:27.688Z,10.70
2022-12-04T05:05:32.541Z,10.43
2022-12-04T05:07:40.423Z,10.65
2022-12-04T05:09:47.354Z,10.88
2022-12-04T05:11:52.107Z,9.60
2022-12-04T05:13:56.934Z,10.32
2022-12-04T05:16:04.147Z,9.38
2022-12-04T05:18:09.398Z,9.48
2022-12-04T05:22:19.146Z,9.75
2022-12-04T05:24:23.942Z,9.02
2022-12-04T05:26:28.956Z,9.13
2022-12-04T05:28:34.343Z,9.55
2022-12-04T05:32:43.909Z,9.10
2022-12-04T05:34:50.409Z,8.88
2022-12-04T05:36:58.081Z,9.05
2022-12-04T05:39:02.914Z,8.70
2022-12-04T05:41:10.148Z,9.75
2022-12-04T05:43:14.943Z,9.50
2022-12-04T05:45:20.029Z,9.00
2022-12-04T05:47:24.840Z,11.23
2022-12-04T05:49:32.164Z,9.32
2022-12-04T05:51:36.951Z,8.95
2022-12-04T05:53:44.640Z,10.02
2022-12-04T05:55:57.244Z,8.63
2022-12-04T05:58:02.634Z,8.93
2022-12-04T06:00:09.020Z,8.82
2022-12-04T06:02:16.113Z,8.88
2022-12-04T06:04:20.989Z,8.98
2022-12-04T06:06:27.928Z,9.00
2022-12-04T06:08:32.888Z,10.88
2022-12-04T06:10:40.386Z,9.95
2022-12-04T06:12:45.301Z,9.52
2022-12-04T06:14:50.232Z,8.60
2022-12-04T06:16:55.200Z,9.55
2022-12-04T06:21:05.715Z,9.43
2022-12-04T06:23:10.541Z,9.52
2022-12-04T06:25:15.362Z,10.77
2022-12-04T06:27:27.752Z,9.82
2022-12-04T06:29:33.133Z,9.02
2022-12-04T06:31:38.297Z,9.27
2022-12-04T06:35:48.151Z,9.00
2022-12-04T06:37:52.917Z,10.30
2022-12-04T06:39:57.987Z,9.60
2022-12-04T06:44:10.111Z,9.27
2022-12-04T06:46:19.158Z,8.88
2022-12-04T06:48:24.373Z,9.48
2022-12-04T06:50:29.141Z,9.38
2022-12-04T06:52:35.580Z,8.77
2022-12-04T06:54:40.467Z,9.27
2022-12-04T06:56:45.407Z,8.85
2022-12-04T06:58:51.960Z,9.75
2022-12-04T07:01:00.184Z,10.02
2022-12-04T07:03:05.014Z,9.70
2022-12-04T07:05:10.940Z,9.05
2022-12-04T07:07:15.719Z,8.90
2022-12-04T07:09:21.206Z,8.90
2022-12-04T07:11:26.368Z,9.48
2022-12-04T07:15:37.649Z,8.88
2022-12-04T07:17:45.037Z,8.50
2022-12-04T07:19:50.037Z,8.68
2022-12-04T07:21:54.916Z,9.77
2022-12-04T07:24:01.166Z,9.48
2022-12-04T07:26:10.782Z,8.93
2022-12-04T07:28:15.514Z,9.63
2022-12-04T07:30:20.681Z,9.52
2022-12-04T07:34:32.850Z,9.40
2022-12-04T07:36:37.726Z,9.55
2022-12-04T07:38:42.757Z,8.88
2022-12-04T07:40:47.505Z,8.85
2022-12-04T07:42:52.355Z,9.80
2022-12-04T07:44:57.250Z,9.02
2022-12-04T07:47:02.261Z,8.60
2022-12-04T07:49:07.076Z,9.35
2022-12-04T07:51:16.727Z,8.57
2022-12-04T07:53:21.504Z,8.40
2022-12-04T07:55:26.380Z,8.35
2022-12-04T07:57:31.618Z,8.30
2022-12-04T07:59:36.473Z,8.73
2022-12-04T08:01:41.499Z,9.13
2022-12-04T08:03:49.155Z,8.35
2022-12-04T08:05:54.032Z,9.07
2022-12-04T08:08:01.571Z,8.45
2022-12-04T08:10:07.284Z,9.50
2022-12-04T08:12:13.153Z,8.60
2022-12-04T08:14:18.164Z,9.38
2022-12-04T08:16:23.006Z,8.48
2022-12-04T08:18:28.127Z,7.95
2022-12-04T08:20:32.927Z,8.68
2022-12-04T08:22:37.683Z,8.32
2022-12-04T08:24:45.309Z,9.07
2022-12-04T08:26:50.197Z,8.43
2022-12-04T08:28:56.463Z,8.60
2022-12-04T08:31:05.817Z,8.98
2022-12-04T08:33:10.770Z,9.32
2022-12-04T08:35:15.557Z,7.80
2022-12-04T08:37:20.564Z,7.80
2022-12-04T08:39:26.117Z,7.72
2022-12-04T08:41:33.496Z,7.95
2022-12-04T08:43:38.475Z,7.32
2022-12-04T08:47:52.472Z,8.73
2022-12-04T08:49:57.798Z,9.25
2022-12-04T08:54:11.467Z,7.80
2022-12-04T08:56:17.114Z,7.03
2022-12-04T08:58:25.103Z,7.32
2022-12-04T09:00:31.599Z,7.97
2022-12-04T09:02:36.445Z,7.93
2022-12-04T09:04:41.364Z,7.60
2022-12-04T09:06:46.279Z,7.30
2022-12-04T09:08:51.096Z,7.88
2022-12-04T09:10:56.005Z,7.47
2022-12-04T09:13:01.065Z,7.30
2022-12-04T09:15:09.748Z,7.65
2022-12-04T09:17:14.535Z,7.68
2022-12-04T09:19:19.376Z,8.93
2022-12-04T09:21:25.338Z,8.82
2022-12-04T09:23:30.748Z,8.90
2022-12-04T09:25:38.239Z,8.15
2022-12-04T09:27:45.076Z,8.90
2022-12-04T09:30:27.428Z,7.85
2022-12-04T09:35:33.708Z,13.05
2022-12-04T09:37:54.830Z,8.68
2022-12-04T09:40:16.769Z,8.15
2022-12-04T09:42:48.663Z,8.15
2022-12-04T09:45:02.579Z,7.78
2022-12-04T09:47:21.051Z,7.65
2022-12-04T09:49:30.564Z,8.13
2022-12-04T09:51:44.559Z,8.40
2022-12-04T09:54:27.161Z,7.55
2022-12-04T09:56:40.932Z,10.52
2022-12-04T09:59:18.865Z,7.75
2022-12-04T10:01:34.332Z,8.00
2022-12-04T10:03:46.999Z,7.88
2022-12-04T10:06:00.637Z,7.57
2022-12-04T10:08:13.664Z,7.68
2022-12-04T10:10:29.500Z,7.35
2022-12-04T10:12:51.870Z,7.63
2022-12-04T10:15:22.453Z,8.13
2022-12-04T10:17:54.138Z,7.93
2022-12-04T10:20:14.581Z,8.40
2022-12-04T10:22:26.479Z,7.15
2022-12-04T10:24:41.505Z,6.93
2022-12-04T10:26:48.836Z,6.77
2022-12-04T10:28:58.015Z,7.78
2022-12-04T10:31:06.258Z,7.45
2022-12-04T10:33:22.171Z,6.93
2022-12-04T10:37:40.745Z,7.90
2022-12-04T10:39:51.402Z,7.30
2022-12-04T10:42:01.834Z,7.72
2022-12-04T10:44:06.852Z,8.43
2022-12-04T10:46:15.970Z,8.00
2022-12-04T10:48:27.787Z,7.28
2022-12-04T10:50:35.414Z,7.65
2022-12-04T10:52:40.335Z,7.03
2022-12-04T10:54:51.175Z,7.30
2022-12-04T10:56:58.714Z,7.45
2022-12-04T10:59:05.348Z,7.32
2022-12-04T11:01:14.577Z,7.35
2022-12-04T11:03:29.095Z,7.45
2022-12-04T11:05:41.501Z,8.30
2022-12-04T11:07:48.910Z,8.30
2022-12-04T11:09:59.506Z,7.78
2022-12-04T11:12:18.319Z,7.57
2022-12-04T11:14:25.928Z,8.90
2022-12-04T11:16:37.029Z,8.57
2022-12-04T11:18:50.820Z,7.47
2022-12-04T11:21:01.191Z,6.88
2022-12-04T11:23:07.668Z,7.32
2022-12-04T11:25:21.344Z,7.03
2022-12-04T11:27:32.255Z,7.22
2022-12-04T11:29:40.324Z,7.15
2022-12-04T11:31:51.534Z,7.75
2022-12-04T11:33:58.728Z,7.03
2022-12-04T11:36:25.222Z,7.00
2022-12-04T11:38:32.162Z,6.43
2022-12-04T11:40:37.719Z,6.32
2022-12-04T11:42:42.561Z,7.75
2022-12-04T11:44:54.558Z,6.82
2022-12-04T11:47:02.448Z,7.95
2022-12-04T11:49:07.372Z,7.68
2022-12-04T11:51:24.710Z,6.90
2022-12-04T11:53:37.931Z,9.20
2022-12-04T11:55:52.626Z,9.65
2022-12-04T11:58:13.596Z,9.75
2022-12-04T12:00:21.136Z,8.88
2022-12-04T12:02:47.644Z,7.18
2022-12-04T12:05:07.797Z,6.90
2022-12-04T12:07:32.759Z,7.28
2022-12-04T12:09:46.515Z,7.40
2022-12-04T12:12:00.035Z,6.80
2022-12-04T12:14:14.519Z,6.25
2022-12-04T12:16:29.037Z,6.45
2022-12-04T12:18:49.264Z,6.80
2022-12-04T12:21:04.222Z,7.15
2022-12-04T12:23:25.201Z,6.93
2022-12-04T12:25:34.176Z,6.68
2022-12-04T12:27:53.259Z,7.88
2022-12-04T12:30:05.936Z,7.55
2022-12-04T12:32:35.365Z,7.63
2022-12-04T12:34:42.964Z,8.07
2022-12-04T12:36:57.811Z,6.70
2022-12-04T12:39:15.526Z,7.05
2022-12-04T12:41:25.071Z,7.20
2022-12-04T12:43:33.822Z,6.80
2022-12-04T12:45:46.739Z,7.10
2022-12-04T12:47:57.001Z,6.53
2022-12-04T12:50:06.134Z,6.35
2022-12-04T12:52:19.563Z,6.90
2022-12-04T12:54:35.244Z,7.25
2022-12-04T12:56:49.321Z,7.15
2022-12-04T12:59:00.062Z,7.53
2022-12-04T13:01:09.571Z,8.85
2022-12-04T13:03:28.101Z,7.97
2022-12-04T13:05:37.666Z,8.68
2022-12-04T13:07:50.975Z,7.20
2022-12-04T13:10:05.174Z,6.75
2022-12-04T13:12:15.342Z,7.25
2022-12-04T13:14:20.300Z,7.00
2022-12-04T13:16:29.735Z,7.45
2022-12-04T13:18:41.535Z,8.27
2022-12-04T13:20:54.690Z,7.70
2022-12-04T13:23:17.401Z,7.13
2022-12-04T13:25:39.371Z,7.43
2022-12-04T13:27:55.605Z,7.63
2022-12-04T13:30:14.469Z,7.95
2022-12-04T13:32:52.813Z,7.25
2022-12-04T13:35:06.937Z,8.18
2022-12-04T13:37:48.106Z,9.50
2022-12-04T13:40:34.073Z,8.05
2022-12-04T13:42:39.200Z,9.18
2022-12-04T13:44:44.154Z,8.30
2022-12-04T13:46:56.175Z,8.13
2022-12-04T13:49:12.969Z,7.97
2022-12-04T13:51:39.464Z,8.73
2022-12-04T13:53:46.022Z,9.05
2022-12-04T13:56:06.030Z,10.25
2022-12-04T13:58:29.976Z,8.13
2022-12-04T14:00:37.346Z,10.15
2022-12-04T14:02:52.019Z,8.20
2022-12-04T14:05:00.790Z,7.93
2022-12-04T14:07:06.874Z,7.60
2022-12-04T14:09:27.755Z,7.75
2022-12-04T14:11:46.513Z,8.50
2022-12-04T14:13:53.726Z,7.97
2022-12-04T14:16:07.551Z,7.75
2022-12-04T14:18:28.495Z,7.88
2022-12-04T14:20:35.456Z,7.97
2022-12-04T14:22:46.193Z,7.53
2022-12-04T14:24:52.953Z,8.23
2022-12-04T14:27:11.798Z,7.57
2022-12-04T14:29:35.770Z,7.63
2022-12-04T14:31:42.555Z,8.13
2022-12-04T14:33:52.385Z,7.43
2022-12-04T14:36:04.721Z,7.60
2022-12-04T14:38:10.283Z,8.77
2022-12-04T14:40:22.716Z,7.60
2022-12-04T14:42:35.036Z,8.82
2022-12-04T14:44:40.064Z,8.52
2022-12-04T14:46:49.547Z,8.38
2022-12-04T14:49:01.985Z,7.57
2022-12-04T14:51:14.709Z,7.85
2022-12-04T14:53:35.146Z,7.88
2022-12-04T14:55:49.632Z,8.20
2022-12-04T14:58:21.875Z,8.02
2022-12-04T15:00:27.602Z,8.05
2022-12-04T15:02:41.198Z,9.50
2022-12-04T15:04:48.689Z,8.23
2022-12-04T15:06:59.942Z,8.48
2022-12-04T15:09:19.850Z,8.60
2022-12-04T15:11:37.206Z,9.48
2022-12-04T15:13:44.784Z,9.65
2022-12-04T15:15:49.656Z,9.98
2022-12-04T15:18:05.832Z,9.27
2022-12-04T15:20:13.599Z,8.30
2022-12-04T15:22:25.403Z,8.90
2022-12-04T15:24:30.202Z,10.15
2022-12-04T15:26:35.240Z,9.98
2022-12-04T15:28:51.298Z,8.70
2022-12-04T15:30:58.013Z,8.63
2022-12-04T15:33:03.745Z,9.60
2022-12-04T15:35:12.355Z,9.23
2022-12-04T15:37:23.204Z,9.63
2022-12-04T15:39:30.682Z,10.13
2022-12-04T15:41:37.344Z,10.45
2022-12-04T15:43:45.123Z,10.48
2022-12-04T15:46:08.386Z,9.50
2022-12-04T15:48:34.711Z,9.40
2022-12-04T15:50:59.071Z,9.97
2022-12-04T15:53:16.998Z,9.75
2022-12-04T15:55:28.249Z,9.63
2022-12-04T15:57:38.392Z,10.50
2022-12-04T15:59:43.417Z,9.77
2022-12-04T16:01:51.215Z,9.32
2022-12-04T16:03:58.325Z,10.30
2022-12-04T16:06:08.938Z,9.60
2022-12-04T16:08:26.595Z,9.52
2022-12-04T16:10:34.854Z,8.55
2022-12-04T16:12:42.851Z,11.18
2022-12-04T16:14:48.197Z,10.20
2022-12-04T16:17:02.563Z,10.82
2022-12-04T16:19:15.172Z,10.60
2022-12-04T16:21:24.226Z,10.52
2022-12-04T16:23:29.475Z,10.18
2022-12-04T16:25:34.622Z,11.32
2022-12-04T16:29:45.437Z,10.43
2022-12-04T16:31:50.970Z,11.07
2022-12-04T16:33:58.982Z,11.25
2022-12-04T16:36:03.941Z,12.75
2022-12-04T16:38:08.744Z,12.20
2022-12-04T16:40:15.258Z,12.68
2022-12-04T16:42:23.013Z,14.70
2022-12-04T16:44:27.931Z,12.60
2022-12-04T16:46:37.863Z,13.10
2022-12-04T16:48:43.637Z,12.10
2022-12-04T16:50:51.004Z,16.23
2022-12-04T16:52:55.950Z,14.40
2022-12-04T16:55:04.989Z,12.38
2022-12-04T16:57:10.760Z,13.90
2022-12-04T16:59:15.549Z,13.50
2022-12-04T17:01:24.760Z,12.50
2022-12-04T17:03:32.928Z,12.18
2022-12-04T17:05:37.791Z,11.23
2022-12-04T17:07:45.297Z,11.40
2022-12-04T17:09:50.168Z,12.65
2022-12-04T17:11:54.972Z,12.48
2022-12-04T17:13:59.951Z,12.40
2022-12-04T17:16:04.742Z,12.20
2022-12-04T17:18:13.949Z,12.23
2022-12-04T17:20:23.284Z,11.25
2022-12-04T17:22:28.155Z,10.68
2022-12-04T17:24:37.883Z,12.38
2022-12-04T17:26:45.473Z,11.00
2022-12-04T17:28:52.453Z,11.02
2022-12-04T17:30:57.412Z,11.05
2022-12-04T17:33:02.983Z,11.52
2022-12-04T17:35:09.554Z,11.93
2022-12-04T17:37:14.423Z,12.23
2022-12-04T17:39:19.172Z,11.95
2022-12-04T17:41:27.006Z,10.52
2022-12-04T17:43:32.612Z,11.55
2022-12-04T17:45:37.954Z,10.57
2022-12-04T17:47:42.991Z,11.80
2022-12-04T17:49:47.918Z,11.68
2022-12-04T17:51:52.731Z,11.55
2022-12-04T17:53:57.522Z,11.43
2022-12-04T17:56:06.095Z,11.57
2022-12-04T17:58:13.561Z,11.38
2022-12-04T18:00:21.885Z,11.52
2022-12-04T18:02:26.715Z,11.45
2022-12-04T18:04:32.092Z,11.38
2022-12-04T18:06:39.096Z,11.80
2022-12-04T18:08:49.745Z,12.60
2022-12-04T18:10:55.043Z,13.80
2022-12-04T18:12:59.889Z,12.40
2022-12-04T18:15:08.433Z,15.07
2022-12-04T18:17:13.273Z,14.18
2022-12-04T18:19:18.156Z,14.27
2022-12-04T18:21:23.098Z,15.50
2022-12-04T18:23:27.895Z,14.02
2022-12-04T18:25:32.742Z,14.35
2022-12-04T18:27:41.711Z,13.15
2022-12-04T18:29:46.931Z,13.90
2022-12-04T18:31:54.931Z,14.07
2022-12-04T18:34:00.697Z,16.10
2022-12-04T18:36:09.282Z,15.50
2022-12-04T18:38:14.163Z,15.40
2022-12-04T18:40:19.035Z,15.27
2022-12-04T18:42:23.884Z,13.88
2022-12-04T18:44:29.440Z,14.13
2022-12-04T18:46:35.672Z,14.88
2022-12-04T18:48:44.276Z,15.98
2022-12-04T18:50:49.108Z,15.68
2022-12-04T18:52:59.918Z,14.65
2022-12-04T18:55:05.992Z,18.27
2022-12-04T18:57:11.220Z,14.85
2022-12-04T19:01:22.579Z,13.75
2022-12-04T19:03:27.594Z,14.52
2022-12-04T19:05:35.384Z,13.57
2022-12-04T19:07:40.316Z,15.82
2022-12-04T19:10:10.378Z,14.73
2022-12-04T19:12:13.577Z,14.45
2022-12-04T19:14:23.553Z,15.82
2022-12-04T19:16:29.069Z,16.27
2022-12-04T19:20:45.559Z,14.37
2022-12-04T19:22:51.788Z,13.38
2022-12-04T19:24:58.942Z,15.40
2022-12-04T19:27:11.108Z,14.50
2022-12-04T19:29:16.389Z,14.93
2022-12-04T19:33:28.096Z,14.77
2022-12-04T19:35:32.909Z,14.18
2022-12-04T19:37:42.081Z,13.65
2022-12-04T19:39:47.627Z,13.43
2022-12-04T19:41:53.016Z,14.30
2022-12-04T19:44:00.335Z,13.65
2022-12-04T19:46:05.268Z,15.23
2022-12-04T19:48:10.079Z,13.45
2022-12-04T19:50:15.062Z,13.65
2022-12-04T19:52:20.614Z,14.57
2022-12-04T19:54:30.037Z,14.40
2022-12-04T19:56:36.193Z,14.13
2022-12-04T19:58:41.529Z,14.02
2022-12-04T20:02:50.955Z,15.05
2022-12-04T20:04:55.881Z,16.77
2022-12-04T20:07:00.693Z,16.42
2022-12-04T20:09:08.865Z,14.45
2022-12-04T20:11:19.231Z,17.05
2022-12-04T20:13:24.009Z,16.88
2022-12-04T20:15:28.840Z,17.90
2022-12-04T20:17:34.085Z,15.35
2022-12-04T20:19:39.057Z,17.17
2022-12-04T20:21:43.942Z,15.40
2022-12-04T20:25:55.158Z,15.40
2022-12-04T20:28:02.580Z,14.00
2022-12-04T20:30:08.891Z,14.43
2022-12-04T20:32:13.761Z,16.15
2022-12-04T20:34:20.630Z,18.27
2022-12-04T20:36:28.124Z,16.42
2022-12-04T20:38:32.937Z,16.63
2022-12-04T20:40:38.044Z,16.75
2022-12-04T20:42:42.933Z,15.45
2022-12-04T20:44:52.677Z,14.63
2022-12-04T20:46:57.432Z,14.68
2022-12-04T20:49:03.329Z,14.88
2022-12-04T20:51:08.662Z,14.60
2022-12-04T20:53:13.439Z,15.93
2022-12-04T20:55:18.351Z,16.63
2022-12-04T20:57:23.168Z,15.68
2022-12-04T20:59:28.038Z,15.35
2022-12-04T21:01:36.113Z,15.52
2022-12-04T21:03:41.825Z,16.48
2022-12-04T21:05:52.541Z,15.68
2022-12-04T21:07:57.333Z,15.65
2022-12-04T21:10:03.003Z,15.00
2022-12-04T21:12:29.255Z,14.98
2022-12-04T21:16:53.544Z,16.77
2022-12-04T21:19:00.867Z,16.13
2022-12-04T21:21:05.648Z,15.90
2022-12-04T21:23:10.456Z,15.10
2022-12-04T21:25:15.517Z,17.50
2022-12-04T21:29:26.820Z,15.63
2022-12-04T21:31:32.735Z,16.50
2022-12-04T21:33:40.200Z,18.63
2022-12-04T21:35:44.972Z,18.05
2022-12-04T21:37:49.748Z,18.58
2022-12-04T21:39:59.482Z,17.45
2022-12-04T21:42:17.029Z,26.23
2022-12-04T21:44:23.523Z,22.65
2022-12-04T21:46:28.518Z,19.83
2022-12-04T21:48:34.099Z,19.75
2022-12-04T21:50:41.485Z,19.70
2022-12-04T21:52:46.260Z,18.10
2022-12-04T21:54:52.717Z,18.42
2022-12-04T21:56:57.796Z,17.10
2022-12-04T21:59:02.714Z,14.88
2022-12-04T22:01:11.823Z,16.20
2022-12-04T22:03:16.870Z,16.15
2022-12-04T22:05:21.713Z,16.92
2022-12-04T22:07:29.503Z,17.58
2022-12-04T22:09:35.663Z,15.90
2022-12-04T22:11:41.481Z,18.35
2022-12-04T22:13:46.738Z,17.77
2022-12-04T22:15:53.172Z,16.88
2022-12-04T22:17:58.255Z,16.73
2022-12-04T22:20:03.511Z,17.50
2022-12-04T22:22:08.805Z,16.23
2022-12-04T22:24:16.534Z,16.33
2022-12-04T22:26:22.183Z,14.70
2022-12-04T22:28:27.046Z,13.50
2022-12-04T22:30:31.871Z,17.65
2022-12-04T22:32:36.634Z,17.48
2022-12-04T22:34:41.440Z,18.20
2022-12-04T22:36:46.256Z,17.02
2022-12-04T22:39:10.684Z,16.42
2022-12-04T22:41:23.180Z,18.30
2022-12-04T22:43:28.011Z,17.92
2022-12-04T22:45:32.749Z,17.02
2022-12-04T22:47:37.572Z,16.23
2022-12-04T22:49:42.362Z,17.35
2022-12-04T22:51:47.257Z,16.25
2022-12-04T22:53:54.122Z,15.40
2022-12-04T22:55:59.133Z,16.55
2022-12-04T22:58:06.539Z,16.65
2022-12-04T23:00:12.561Z,16.17
2022-12-04T23:02:17.464Z,14.80
2022-12-04T23:04:22.261Z,14.50
2022-12-04T23:06:28.819Z,14.40
2022-12-04T23:08:33.815Z,16.77
2022-12-04T23:10:40.416Z,17.80
2022-12-04T23:12:47.926Z,18.63
2022-12-04T23:14:55.311Z,17.30
2022-12-04T23:17:00.173Z,18.13
2022-12-04T23:19:05.285Z,15.50
2022-12-04T23:21:12.345Z,16.15
2022-12-04T23:23:17.150Z,16.23
2022-12-04T23:25:21.952Z,17.05
2022-12-04T23:27:26.746Z,15.73
2022-12-04T23:31:59.073Z,20.20
2022-12-04T23:34:04.958Z,18.92
2022-12-04T23:36:12.106Z,17.50
2022-12-04T23:38:17.006Z,18.83
2022-12-04T23:40:22.042Z,18.20
2022-12-04T23:42:26.851Z,18.90
2022-12-04T23:44:31.961Z,17.08
2022-12-04T23:48:45.778Z,18.48
2022-12-04T23:50:50.591Z,19.20
2022-12-04T23:52:55.353Z,17.90
2022-12-04T23:55:03.011Z,17.48
2022-12-04T23:57:08.001Z,18.55
2022-12-04T23:59:13.076Z,18.52
